Lens, Belgium
Current Conditions -  °F | °C
As of 2:25 PM on Thursday 23 Oct 2014 (Local Time) from EBCV Reporting Station
Broken Clouds Broken Clouds  
Wind Chill: 55°   Ceiling: 4200
Heat Index: 55°   Visibility: 6mi
Dew Point: 50°   Wind: 9mph
Humidity: 82%   Direction: 210°SSW
Pressure: 30.21"   Gusts: NA
Location:  50.56°N, 3.9°E
Report Text: EBCV 231225Z AUTO 21008KT 9999 BKN042/// 13/10 Q1023 BLU
Loading
Personal Weather Stations






























Interactive Weather Map New forecast layout! Learn more

10-Day Weather Forecast

Advertisements
Track Severe Weather on mobile